Time;durP1;ratioP1;P1;durP2;ratioP2;P2;SDS_P1;SDS_P2;PMS_P1;PMS_P2;Temp;Humidity;BMP_temperature;BMP_pressure;BME280_temperature;BME280_humidity;BME280_pressure;Samples;Min_cycle;Max_cycle;Signal;HPM_P1;HPM_P2
2022/12/27 00:01:18;;;;;;;3.35;1.08;;;3.30;99.90;;;;;;5033326;28;20157;-37
2022/12/27 00:03:45;;;;;;;2.70;0.80;;;3.20;99.90;;;;;;5024420;28;20072;-36
2022/12/27 00:06:14;;;;;;;6.63;1.30;;;3.20;99.90;;;;;;5028082;28;20033;-36
2022/12/27 00:08:41;;;;;;;5.35;1.15;;;3.10;99.90;;;;;;5029832;28;20103;-36
2022/12/27 00:11:09;;;;;;;11.50;2.30;;;3.10;99.90;;;;;;5029857;28;20040;-36
2022/12/27 00:13:35;;;;;;;5.05;1.25;;;3.00;99.90;;;;;;5029113;28;20029;-36
2022/12/27 00:16:09;;;;;;;5.45;1.08;;;3.00;99.90;;;;;;5028153;28;20044;-36
2022/12/27 00:18:35;;;;;;;7.90;1.35;;;3.00;99.90;;;;;;5026936;28;20108;-35
2022/12/27 00:21:02;;;;;;;5.00;1.25;;;3.00;99.90;;;;;;5024432;28;20134;-37
2022/12/27 00:23:32;;;;;;;6.95;1.25;;;3.00;99.90;;;;;;5029090;28;20041;-36
2022/12/27 00:26:03;;;;;;;3.30;1.00;;;3.00;99.90;;;;;;5027817;28;20041;-36
2022/12/27 00:28:31;;;;;;;5.00;1.00;;;3.00;99.90;;;;;;5028658;28;20259;-36
2022/12/27 00:30:58;;;;;;;4.28;1.88;;;3.10;99.90;;;;;;5025330;28;20049;-37
2022/12/27 00:33:25;;;;;;;7.55;1.60;;;3.20;99.90;;;;;;5058798;28;20045;-36
2022/12/27 00:35:50;;;;;;;4.50;1.25;;;3.20;99.90;;;;;;5026446;28;20041;-36
2022/12/27 00:38:20;;;;;;;7.07;1.65;;;3.30;99.90;;;;;;5025840;28;20437;-39
2022/12/27 00:40:47;;;;;;;7.30;1.33;;;3.30;99.90;;;;;;5024086;28;20115;-36
2022/12/27 00:43:12;;;;;;;9.18;1.00;;;3.30;99.90;;;;;;5024507;28;20053;-37
2022/12/27 00:45:38;;;;;;;4.38;1.02;;;3.30;99.90;;;;;;5023514;28;20514;-37
2022/12/27 00:48:04;;;;;;;4.53;0.98;;;3.30;99.90;;;;;;5023895;28;20041;-36
2022/12/27 00:50:30;;;;;;;5.97;1.30;;;3.30;99.90;;;;;;5025230;28;20080;-36
2022/12/27 00:52:56;;;;;;;9.13;1.38;;;3.30;99.90;;;;;;5026633;28;20075;-37
2022/12/27 00:55:21;;;;;;;4.03;1.00;;;3.30;99.90;;;;;;5020623;28;20486;-36
2022/12/27 00:57:47;;;;;;;6.80;1.80;;;3.30;99.90;;;;;;5016755;28;20045;-37
2022/12/27 01:00:13;;;;;;;6.18;1.75;;;3.30;99.90;;;;;;5023830;28;20128;-36
2022/12/27 01:02:39;;;;;;;4.50;1.20;;;3.30;99.90;;;;;;5020942;28;20053;-38
2022/12/27 01:05:05;;;;;;;5.60;1.30;;;3.30;99.90;;;;;;5025501;28;20060;-37
2022/12/27 01:07:31;;;;;;;4.05;1.35;;;3.30;99.90;;;;;;5020899;28;20045;-37
2022/12/27 01:09:57;;;;;;;6.57;1.13;;;3.30;99.90;;;;;;5012669;28;20123;-35
2022/12/27 01:12:23;;;;;;;5.07;1.15;;;3.30;99.90;;;;;;5017737;28;20041;-36
2022/12/27 01:14:48;;;;;;;5.60;1.52;;;3.30;99.90;;;;;;5017174;28;20037;-37
2022/12/27 01:17:14;;;;;;;8.15;1.33;;;3.30;99.90;;;;;;5022920;28;20029;-36
2022/12/27 01:19:40;;;;;;;4.50;1.15;;;3.30;99.90;;;;;;5024276;28;20132;-36
2022/12/27 01:22:06;;;;;;;6.03;1.30;;;3.30;99.90;;;;;;5022095;28;20038;-40
2022/12/27 01:24:33;;;;;;;5.32;1.70;;;3.30;99.90;;;;;;5026355;28;20042;-38
2022/12/27 01:26:59;;;;;;;12.70;1.38;;;3.30;99.90;;;;;;5022386;28;20034;-37
2022/12/27 01:29:25;;;;;;;10.57;1.92;;;3.30;99.90;;;;;;5024206;28;20030;-37
2022/12/27 01:31:50;;;;;;;7.43;1.48;;;3.30;99.90;;;;;;5025923;28;20044;-36
2022/12/27 01:34:17;;;;;;;5.25;1.30;;;3.30;99.90;;;;;;5021572;28;20128;-34
2022/12/27 01:36:43;;;;;;;5.97;1.65;;;3.40;99.90;;;;;;5023354;28;20037;-36
2022/12/27 01:39:13;;;;;;;5.95;0.80;;;3.50;99.90;;;;;;5022298;28;20029;-36
2022/12/27 01:44:38;;;;;;;8.93;2.33;;;3.70;99.90;;;;;;5021344;28;20053;-36
2022/12/27 01:47:16;;;;;;;6.93;1.88;;;3.70;99.90;;;;;;5023672;28;20439;-34
2022/12/27 01:49:58;;;;;;;3.70;1.50;;;3.70;99.90;;;;;;5025121;28;20088;-35
2022/12/27 01:52:27;;;;;;;6.85;1.30;;;3.70;99.90;;;;;;5026350;28;20092;-35
2022/12/27 01:54:56;;;;;;;10.50;1.40;;;3.70;99.90;;;;;;5021901;28;20140;-35
2022/12/27 01:57:21;;;;;;;4.40;1.00;;;3.70;99.90;;;;;;5025866;28;20405;-34
2022/12/27 01:59:48;;;;;;;6.05;1.30;;;3.70;99.90;;;;;;5024558;28;20567;-34
2022/12/27 02:02:14;;;;;;;7.38;1.58;;;3.70;99.90;;;;;;5026409;28;20060;-33
2022/12/27 02:04:40;;;;;;;6.68;1.42;;;3.70;99.90;;;;;;5025975;28;20034;-34
2022/12/27 02:07:05;;;;;;;7.03;2.05;;;3.70;99.90;;;;;;5026536;28;20133;-34
2022/12/27 02:09:53;;;;;;;4.80;1.25;;;3.70;99.90;;;;;;5027478;28;20095;-34
2022/12/27 02:12:20;;;;;;;8.00;1.63;;;3.80;99.90;;;;;;5021092;28;20049;-34
2022/12/27 02:14:48;;;;;;;6.80;2.25;;;3.70;99.90;;;;;;5023292;28;20091;-34
2022/12/27 02:17:16;;;;;;;7.85;1.50;;;3.70;99.90;;;;;;5020643;28;20669;-35
2022/12/27 02:19:41;;;;;;;6.05;1.63;;;3.70;99.90;;;;;;5021980;28;20049;-47
2022/12/27 02:22:16;;;;;;;8.55;1.40;;;3.70;99.90;;;;;;5025612;28;20055;-34
2022/12/27 02:25:11;;;;;;;4.80;1.02;;;3.70;99.90;;;;;;5026083;28;20132;-34
2022/12/27 02:28:11;;;;;;;3.78;1.10;;;3.70;99.90;;;;;;5022531;28;20053;-35
2022/12/27 02:30:37;;;;;;;6.60;2.17;;;3.70;99.90;;;;;;5024495;28;20037;-34
2022/12/27 02:33:13;;;;;;;7.78;1.15;;;3.70;99.90;;;;;;5023911;28;20033;-35
2022/12/27 02:35:44;;;;;;;4.53;1.00;;;3.70;99.90;;;;;;5020227;28;20033;-35
2022/12/27 02:38:16;;;;;;;5.43;1.33;;;3.70;99.90;;;;;;5015338;28;20384;-34
2022/12/27 02:55:38;;;;;;;6.13;1.00;;;3.80;99.90;;;;;;5023544;28;20034;-35
2022/12/27 02:58:26;;;;;;;5.43;1.00;;;3.70;99.90;;;;;;5023477;28;20044;-35
2022/12/27 03:04:45;;;;;;;4.80;1.20;;;3.60;99.90;;;;;;5023941;28;20052;-35
2022/12/27 03:07:36;;;;;;;5.05;1.13;;;3.60;99.90;;;;;;5018255;28;20576;-36
2022/12/27 03:16:56;;;;;;;3.80;0.80;;;3.50;99.90;;;;;;4980982;28;20046;-35
2022/12/27 03:25:28;;;;;;;5.00;1.65;;;3.60;99.90;;;;;;5023688;28;20041;-34
2022/12/27 03:34:03;;;;;;;6.60;1.70;;;3.60;99.90;;;;;;5025142;28;20057;-36
2022/12/27 03:39:29;;;;;;;6.63;1.30;;;3.60;99.90;;;;;;5028364;28;20076;-36
2022/12/27 03:44:48;;;;;;;;;;;3.70;99.90;;;;;;5023474;28;20049;-36
2022/12/27 03:47:29;;;;;;;4.22;1.13;;;3.70;99.90;;;;;;5027454;28;20302;-35
2022/12/27 03:50:17;;;;;;;5.28;0.73;;;3.80;99.90;;;;;;5023969;28;20149;-34
2022/12/27 03:52:54;;;;;;;7.05;1.45;;;3.80;99.90;;;;;;5029990;28;20033;-35
2022/12/27 03:55:21;;;;;;;3.95;0.73;;;3.90;99.90;;;;;;5021603;28;20044;-35
2022/12/27 03:57:47;;;;;;;7.47;0.98;;;4.00;99.90;;;;;;5029639;28;20049;-36
2022/12/27 04:00:13;;;;;;;9.15;0.93;;;4.00;99.90;;;;;;5029599;28;20119;-34
2022/12/27 04:02:39;;;;;;;6.30;1.15;;;4.10;99.90;;;;;;5027481;28;20037;-36
2022/12/27 04:05:06;;;;;;;7.68;1.23;;;4.10;99.90;;;;;;5026902;28;20038;-36
2022/12/27 04:07:31;;;;;;;9.27;1.17;;;4.10;99.90;;;;;;5027312;28;20069;-35
2022/12/27 04:34:42;;;;;;;10.32;1.55;;;4.10;99.90;;;;;;5026537;28;20044;-35
2022/12/27 04:37:16;;;;;;;5.60;1.10;;;4.10;99.90;;;;;;5021996;28;20033;-35
2022/12/27 04:54:55;;;;;;;4.43;0.90;;;4.20;99.90;;;;;;5027831;28;20552;-35
2022/12/27 04:56:11;;;;;;;7.82;0.93;;;4.20;99.90;;;;;;5027469;28;20518;-35
2022/12/27 05:02:01;;;;;;;9.07;1.67;;;4.20;99.90;;;;;;5025492;28;20164;-35
2022/12/27 05:04:06;;;;;;;7.63;1.38;;;4.20;99.90;;;;;;5028470;28;20080;-35
2022/12/27 05:06:32;;;;;;;7.57;1.52;;;4.20;99.90;;;;;;5028994;28;20533;-35
2022/12/27 05:14:26;;;;;;;8.60;1.55;;;4.00;99.90;;;;;;5025712;28;20053;-37
2022/12/27 05:16:52;;;;;;;12.38;1.80;;;3.90;99.90;;;;;;5026625;28;20038;-38
2022/12/27 05:19:17;;;;;;;7.78;1.58;;;3.90;99.90;;;;;;5023223;28;20045;-35
2022/12/27 05:27:12;;;;;;;8.00;1.70;;;3.80;99.90;;;;;;5020109;28;20124;-34
2022/12/27 05:29:38;;;;;;;7.63;1.42;;;3.80;99.90;;;;;;5023623;28;20124;-34
2022/12/27 05:32:03;;;;;;;6.85;1.77;;;3.70;99.90;;;;;;5027513;28;20381;-37
2022/12/27 05:34:29;;;;;;;10.15;1.40;;;3.70;99.90;;;;;;5023218;28;20037;-36
2022/12/27 05:36:55;;;;;;;7.53;1.38;;;3.70;99.90;;;;;;5020447;28;20041;-36
2022/12/27 05:39:20;;;;;;;6.75;0.90;;;3.70;99.90;;;;;;5025239;28;20045;-37
2022/12/27 05:41:46;;;;;;;4.88;1.08;;;3.70;99.90;;;;;;5025974;28;20076;-35
2022/12/27 05:44:12;;;;;;;5.93;1.55;;;3.70;99.90;;;;;;5026634;28;20041;-36
2022/12/27 05:46:37;;;;;;;6.95;1.65;;;3.80;99.90;;;;;;5024325;28;20044;-36
2022/12/27 05:49:03;;;;;;;16.05;2.22;;;3.70;99.90;;;;;;5038448;28;20140;-37
2022/12/27 05:51:29;;;;;;;8.85;1.92;;;3.80;99.90;;;;;;5025293;28;20041;-35
2022/12/27 05:53:54;;;;;;;8.40;1.30;;;3.80;99.90;;;;;;5022685;28;20047;-36
2022/12/27 05:56:20;;;;;;;7.32;1.60;;;3.80;99.90;;;;;;5025383;28;20076;-36
2022/12/27 05:58:47;;;;;;;9.10;1.90;;;3.80;99.90;;;;;;5023293;28;20041;-35
2022/12/27 06:01:16;;;;;;;3.97;1.60;;;3.80;99.90;;;;;;5022589;28;20037;-35
2022/12/27 06:03:42;;;;;;;5.18;1.38;;;3.80;99.90;;;;;;5024632;28;20149;-35
2022/12/27 06:06:09;;;;;;;6.40;1.27;;;3.80;99.90;;;;;;5025959;28;20116;-35
2022/12/27 06:08:35;;;;;;;3.90;1.45;;;3.80;99.90;;;;;;5023504;28;20041;-35
2022/12/27 06:11:13;;;;;;;7.25;1.35;;;3.80;99.90;;;;;;5025387;28;20048;-35
2022/12/27 06:13:42;;;;;;;7.82;1.40;;;3.80;99.90;;;;;;5024360;28;20045;-35
2022/12/27 06:16:10;;;;;;;8.70;1.50;;;3.70;99.90;;;;;;5026617;28;20038;-34
2022/12/27 06:18:37;;;;;;;7.18;2.03;;;3.70;99.90;;;;;;5027299;28;21026;-35
2022/12/27 06:21:15;;;;;;;9.40;1.90;;;3.60;99.90;;;;;;5025683;28;20447;-35
2022/12/27 06:23:43;;;;;;;7.15;1.42;;;3.60;99.90;;;;;;5025370;28;20045;-35
2022/12/27 06:26:15;;;;;;;4.45;1.42;;;3.50;99.90;;;;;;5023942;28;20494;-35
2022/12/27 06:28:40;;;;;;;11.10;1.63;;;3.50;99.90;;;;;;5028063;28;20120;-35
2022/12/27 06:31:06;;;;;;;6.60;1.50;;;3.50;99.90;;;;;;5019441;28;20578;-35
2022/12/27 06:33:32;;;;;;;9.85;1.73;;;3.50;99.90;;;;;;5026479;28;20064;-35
2022/12/27 06:35:57;;;;;;;11.90;1.85;;;3.50;99.90;;;;;;5023118;28;20034;-35
2022/12/27 06:38:23;;;;;;;7.10;1.33;;;3.50;99.90;;;;;;5024806;28;20505;-37
2022/12/27 06:40:49;;;;;;;7.45;1.58;;;3.50;99.90;;;;;;5026133;28;20063;-34
2022/12/27 06:43:15;;;;;;;10.18;1.80;;;3.50;99.90;;;;;;5024481;28;20107;-38
2022/12/27 06:45:41;;;;;;;7.90;1.58;;;3.50;99.90;;;;;;5022760;28;20047;-38
2022/12/27 06:48:06;;;;;;;6.63;1.52;;;3.50;99.90;;;;;;5024411;28;20041;-35
2022/12/27 06:50:32;;;;;;;8.77;2.00;;;3.50;99.90;;;;;;5020607;28;20432;-36
2022/12/27 06:52:58;;;;;;;7.38;1.85;;;3.50;99.90;;;;;;5024253;28;20049;-35
2022/12/27 06:55:24;;;;;;;5.72;1.58;;;3.50;99.90;;;;;;5026865;28;20033;-36
2022/12/27 06:57:50;;;;;;;7.45;2.00;;;3.40;99.90;;;;;;5020388;28;20513;-37
2022/12/27 07:00:16;;;;;;;3.70;1.30;;;3.40;99.90;;;;;;5022509;28;20037;-36
2022/12/27 07:02:42;;;;;;;5.07;1.77;;;3.40;99.90;;;;;;5026820;28;20051;-35
2022/12/27 07:05:08;;;;;;;7.10;2.00;;;3.40;99.90;;;;;;5022131;28;20108;-35
2022/12/27 07:07:34;;;;;;;8.93;1.15;;;3.30;99.90;;;;;;5026155;28;20041;-37
2022/12/27 07:10:00;;;;;;;8.73;1.45;;;3.30;99.90;;;;;;5022444;28;20397;-34
2022/12/27 07:12:26;;;;;;;7.22;1.48;;;3.40;99.90;;;;;;5028331;28;20123;-37
2022/12/27 07:14:51;;;;;;;10.55;1.92;;;3.40;99.90;;;;;;5028124;28;20056;-36
2022/12/27 07:17:17;;;;;;;12.30;2.28;;;3.50;99.90;;;;;;5029799;28;20033;-36
2022/12/27 07:19:43;;;;;;;13.82;2.00;;;3.60;99.90;;;;;;5024597;28;20059;-36
2022/12/27 07:22:08;;;;;;;5.85;1.13;;;3.60;99.90;;;;;;5028056;28;20052;-36
2022/12/27 07:24:34;;;;;;;13.38;2.33;;;3.70;99.90;;;;;;5031551;28;20045;-36
2022/12/27 07:27:01;;;;;;;5.70;1.40;;;3.70;99.90;;;;;;5026902;28;20406;-36
2022/12/27 07:29:26;;;;;;;8.45;1.63;;;3.70;99.90;;;;;;5029317;28;20038;-37
2022/12/27 07:31:52;;;;;;;14.13;2.47;;;3.70;99.90;;;;;;5025821;28;20045;-35
2022/12/27 07:34:20;;;;;;;9.20;1.63;;;3.70;99.90;;;;;;5029996;28;20038;-36
2022/12/27 07:36:47;;;;;;;8.45;1.80;;;3.70;99.90;;;;;;5027701;28;20045;-36
2022/12/27 07:39:13;;;;;;;8.57;1.58;;;3.70;99.90;;;;;;5027168;28;20041;-36
2022/12/27 07:41:41;;;;;;;6.25;2.03;;;3.80;99.90;;;;;;5029271;28;20419;-36
2022/12/27 07:44:09;;;;;;;11.75;2.28;;;3.80;99.90;;;;;;5028730;28;20045;-37
2022/12/27 07:46:35;;;;;;;7.07;1.85;;;3.80;99.90;;;;;;5029170;28;20144;-37
2022/12/27 07:49:01;;;;;;;7.35;1.88;;;3.80;99.90;;;;;;5025746;28;20521;-37
2022/12/27 07:51:27;;;;;;;6.70;1.52;;;3.80;99.90;;;;;;5027833;28;20049;-36
2022/12/27 07:53:53;;;;;;;5.63;1.63;;;3.80;99.90;;;;;;5030276;28;20163;-36
2022/12/27 07:56:25;;;;;;;7.60;1.80;;;3.80;99.90;;;;;;5027911;28;20033;-37
2022/12/27 07:58:50;;;;;;;12.30;2.03;;;3.70;99.90;;;;;;5022133;28;20483;-37
2022/12/27 08:01:19;;;;;;;10.63;2.40;;;3.70;99.90;;;;;;5009250;28;20402;-36
2022/12/27 08:03:45;;;;;;;9.23;1.85;;;3.70;99.90;;;;;;5025103;28;20098;-38
2022/12/27 08:06:32;;;;;;;9.32;1.70;;;3.80;99.90;;;;;;5026111;28;20049;-37
2022/12/27 08:09:02;;;;;;;2.95;1.13;;;3.80;99.90;;;;;;5023515;28;20068;-37
2022/12/27 08:11:28;;;;;;;8.50;2.25;;;3.80;99.90;;;;;;5023431;28;20042;-36
2022/12/27 08:13:54;;;;;;;4.38;1.50;;;3.80;99.90;;;;;;5025361;28;20041;-36
2022/12/27 08:16:22;;;;;;;11.23;2.75;;;3.80;99.90;;;;;;5029175;28;20052;-38
2022/12/27 08:18:48;;;;;;;9.75;2.10;;;3.80;99.90;;;;;;5024540;28;20048;-37
2022/12/27 08:21:15;;;;;;;11.40;1.90;;;3.80;99.90;;;;;;5059533;28;20042;-36
2022/12/27 08:23:41;;;;;;;12.88;2.03;;;3.80;99.90;;;;;;5026613;28;20041;-36
2022/12/27 08:26:07;;;;;;;9.55;1.90;;;3.80;99.90;;;;;;5029817;28;20459;-36
2022/12/27 08:28:34;;;;;;;7.00;2.20;;;3.80;99.90;;;;;;5020041;28;20056;-37
2022/12/27 08:31:00;;;;;;;12.70;2.53;;;3.80;99.90;;;;;;5022153;28;20530;-36
2022/12/27 08:33:27;;;;;;;11.90;2.17;;;3.80;99.90;;;;;;5025309;28;20120;-39
2022/12/27 08:35:53;;;;;;;7.95;2.53;;;3.80;99.90;;;;;;5020394;28;20037;-38
2022/12/27 08:38:19;;;;;;;10.63;1.67;;;3.80;99.90;;;;;;5019134;28;20034;-36
2022/12/27 08:40:45;;;;;;;9.05;1.83;;;3.80;99.90;;;;;;5024667;28;20400;-35
2022/12/27 08:43:11;;;;;;;8.73;2.75;;;3.80;99.90;;;;;;5028360;28;20052;-37
2022/12/27 08:45:38;;;;;;;8.50;2.40;;;3.90;99.90;;;;;;5028877;28;20076;-36
2022/12/27 08:48:04;;;;;;;7.22;1.95;;;3.90;99.90;;;;;;5026852;28;20044;-37
2022/12/27 08:50:31;;;;;;;8.48;2.13;;;3.90;99.90;;;;;;5026131;28;20056;-36
2022/12/27 08:52:59;;;;;;;8.68;1.90;;;3.90;99.90;;;;;;5013513;28;20593;-36
2022/12/27 08:55:26;;;;;;;7.30;1.80;;;3.90;99.90;;;;;;5016895;28;20034;-35
2022/12/27 08:57:59;;;;;;;9.65;3.30;;;4.00;99.90;;;;;;5021865;28;20045;-36
2022/12/27 09:00:26;;;;;;;6.43;1.58;;;4.00;99.90;;;;;;5023020;28;20095;-35
2022/12/27 09:02:53;;;;;;;7.82;2.15;;;4.00;99.90;;;;;;5022014;28;20044;-38
2022/12/27 09:05:20;;;;;;;5.88;1.55;;;4.00;99.90;;;;;;5017917;28;20034;-36
2022/12/27 09:07:46;;;;;;;9.57;1.75;;;4.00;99.90;;;;;;5018335;28;20045;-38
2022/12/27 09:10:13;;;;;;;6.53;1.38;;;4.00;99.90;;;;;;5023896;28;20041;-36
2022/12/27 09:12:39;;;;;;;12.60;2.80;;;4.00;99.90;;;;;;5022915;28;20061;-36
2022/12/27 09:15:08;;;;;;;8.25;1.95;;;4.10;99.90;;;;;;5019172;28;20029;-36
2022/12/27 09:17:34;;;;;;;7.53;1.70;;;4.20;99.90;;;;;;5025365;28;20025;-37
2022/12/27 09:19:59;;;;;;;6.45;1.77;;;4.30;99.90;;;;;;5023251;28;20049;-36
2022/12/27 09:22:27;;;;;;;9.05;1.95;;;4.30;99.90;;;;;;5019302;28;21146;-38
2022/12/27 09:24:53;;;;;;;4.82;1.20;;;4.30;99.90;;;;;;5015665;28;20510;-37
2022/12/27 09:27:19;;;;;;;12.77;2.20;;;4.40;99.90;;;;;;5023127;28;20033;-36
2022/12/27 09:29:45;;;;;;;9.30;1.77;;;4.40;99.90;;;;;;5025402;28;20147;-36
2022/12/27 09:32:10;;;;;;;10.38;1.30;;;4.50;99.90;;;;;;5022022;28;20075;-35
2022/12/27 09:34:36;;;;;;;13.23;2.13;;;4.50;99.90;;;;;;5019716;28;20135;-37
2022/12/27 09:37:02;;;;;;;10.10;1.20;;;4.50;99.90;;;;;;5018837;28;20486;-38
2022/12/27 09:39:27;;;;;;;6.15;1.67;;;4.60;99.90;;;;;;5022114;28;20037;-37
2022/12/27 09:42:34;;;;;;;6.88;1.77;;;4.60;99.90;;;;;;5026448;28;20037;-36
2022/12/27 09:45:13;;;;;;;11.68;1.58;;;4.70;99.90;;;;;;5021414;28;20103;-36
2022/12/27 09:48:00;;;;;;;6.15;1.30;;;4.80;99.90;;;;;;5025230;28;20045;-36
2022/12/27 09:50:48;;;;;;;6.32;1.73;;;4.80;99.90;;;;;;5019276;28;20054;-36
2022/12/27 09:53:17;;;;;;;9.20;1.48;;;4.80;99.90;;;;;;5016654;28;20684;-36
2022/12/27 09:55:56;;;;;;;5.65;1.25;;;4.90;99.90;;;;;;5023356;28;20045;-36
2022/12/27 09:58:27;;;;;;;9.35;1.92;;;4.90;99.90;;;;;;5020606;28;20045;-36
2022/12/27 10:00:53;;;;;;;5.82;1.35;;;4.90;99.90;;;;;;5006239;28;20045;-37
2022/12/27 10:03:24;;;;;;;6.13;1.17;;;4.90;99.90;;;;;;5023176;28;20435;-36
2022/12/27 10:06:16;;;;;;;8.07;1.40;;;4.90;99.90;;;;;;5025228;28;20041;-36
2022/12/27 10:08:54;;;;;;;9.45;1.80;;;5.00;99.90;;;;;;5001250;28;20064;-36
2022/12/27 10:11:36;;;;;;;14.63;2.03;;;5.00;99.90;;;;;;5048249;28;20052;-37
2022/12/27 10:14:23;;;;;;;8.23;1.17;;;5.00;99.90;;;;;;5013065;28;20053;-36
2022/12/27 10:17:26;;;;;;;8.95;1.45;;;5.00;99.90;;;;;;5022383;28;20045;-38
2022/12/27 10:20:29;;;;;;;6.65;1.23;;;5.10;99.90;;;;;;5022242;28;20053;-36
2022/12/27 10:23:03;;;;;;;5.35;1.23;;;5.10;99.90;;;;;;5024842;28;20045;-35
2022/12/27 10:25:30;;;;;;;12.35;1.83;;;5.20;99.90;;;;;;5022584;28;20041;-36
2022/12/27 10:28:12;;;;;;;10.55;1.52;;;5.30;99.90;;;;;;5022373;28;20129;-36
2022/12/27 10:30:39;;;;;;;8.52;1.25;;;5.30;99.90;;;;;;5017292;28;20148;-37
2022/12/27 10:33:06;;;;;;;7.43;1.13;;;5.40;99.90;;;;;;5015675;28;20060;-35
2022/12/27 10:35:32;;;;;;;6.30;1.75;;;5.40;99.90;;;;;;5014798;28;20045;-36
2022/12/27 10:38:00;;;;;;;13.63;2.38;;;5.50;99.90;;;;;;5017654;28;20071;-38
2022/12/27 10:40:45;;;;;;;13.13;1.73;;;5.50;99.90;;;;;;5021854;28;20041;-37
2022/12/27 10:43:27;;;;;;;10.85;1.83;;;5.70;99.90;;;;;;5022299;28;20052;-36
2022/12/27 10:45:52;;;;;;;5.13;1.38;;;6.00;99.90;;;;;;5021472;28;20052;-36
2022/12/27 10:48:22;;;;;;;6.45;1.40;;;6.30;99.90;;;;;;5018764;28;20037;-36
2022/12/27 10:50:54;;;;;;;6.93;1.35;;;6.80;99.90;;;;;;5017394;28;20080;-36
2022/12/27 10:53:36;;;;;;;7.70;1.08;;;7.10;99.90;;;;;;5023645;28;20041;-35
2022/12/27 10:56:06;;;;;;;6.57;1.25;;;7.40;99.90;;;;;;5018227;28;20387;-38
2022/12/27 10:58:41;;;;;;;7.95;1.20;;;7.60;99.90;;;;;;5019666;28;20112;-36
2022/12/27 11:01:24;;;;;;;6.32;1.15;;;7.70;99.90;;;;;;5022075;28;20511;-36
2022/12/27 11:04:21;;;;;;;4.15;1.15;;;7.70;99.90;;;;;;5019834;28;20076;-38
2022/12/27 11:07:00;;;;;;;7.95;0.85;;;7.60;99.90;;;;;;5021326;28;20125;-36
2022/12/27 11:09:33;;;;;;;5.82;1.35;;;7.70;99.90;;;;;;5020931;28;21606;-38
2022/12/27 11:12:23;;;;;;;3.90;1.35;;;7.90;99.90;;;;;;5020649;28;20406;-38
2022/12/27 11:15:17;;;;;;;6.90;1.45;;;8.00;99.90;;;;;;5021524;28;20056;-36
2022/12/27 11:17:44;;;;;;;7.55;1.30;;;7.80;99.90;;;;;;5012214;28;20110;-37
2022/12/27 11:20:11;;;;;;;7.20;1.30;;;7.60;99.90;;;;;;5023746;28;20040;-37
2022/12/27 11:22:47;;;;;;;9.25;1.15;;;7.30;99.90;;;;;;5017142;28;20533;-36
2022/12/27 11:25:14;;;;;;;6.57;2.17;;;7.30;99.90;;;;;;5022831;28;20096;-37
2022/12/27 11:27:48;;;;;;;6.80;1.67;;;7.30;99.90;;;;;;5023505;28;20069;-36
2022/12/27 11:30:26;;;;;;;7.75;1.52;;;7.30;99.90;;;;;;5025775;28;20048;-36
2022/12/27 11:32:52;;;;;;;10.38;1.50;;;7.30;99.90;;;;;;5021830;28;20049;-37
2022/12/27 11:35:20;;;;;;;6.57;1.27;;;7.20;99.90;;;;;;5024080;28;20048;-37
2022/12/27 11:37:47;;;;;;;8.05;1.35;;;7.00;99.90;;;;;;5024671;28;20037;-38
2022/12/27 11:40:26;;;;;;;9.20;1.50;;;6.90;99.90;;;;;;5032844;28;20045;-36
2022/12/27 11:43:14;;;;;;;5.05;1.55;;;6.80;99.90;;;;;;5019422;28;20078;-36
2022/12/27 11:45:47;;;;;;;12.43;1.83;;;6.70;99.90;;;;;;5022243;28;20484;-37
2022/12/27 11:48:16;;;;;;;13.07;2.67;;;6.70;99.90;;;;;;5020248;28;20091;-42
2022/12/27 11:51:23;;;;;;;12.05;1.55;;;6.50;99.90;;;;;;5020730;28;20068;-36
2022/12/27 11:54:05;;;;;;;11.52;2.15;;;6.50;99.90;;;;;;4962548;28;20128;-36
2022/12/27 11:56:38;;;;;;;7.90;1.45;;;6.40;99.90;;;;;;4983352;28;20042;-38
2022/12/27 11:59:10;;;;;;;5.20;1.60;;;6.40;99.90;;;;;;5021091;28;20085;-36
2022/12/27 12:01:51;;;;;;;8.63;2.15;;;6.40;99.90;;;;;;5027089;28;20038;-36
2022/12/27 12:04:25;;;;;;;7.13;2.85;;;6.40;99.90;;;;;;5026652;28;20525;-36
2022/12/27 12:06:54;;;;;;;7.95;2.30;;;6.40;99.90;;;;;;5022144;28;20049;-36
2022/12/27 12:09:44;;;;;;;6.60;1.42;;;6.40;99.90;;;;;;5027285;28;20438;-36
2022/12/27 12:12:50;;;;;;;8.52;1.77;;;6.40;99.90;;;;;;5021192;28;20045;-36
2022/12/27 12:15:43;;;;;;;5.43;1.80;;;6.50;99.90;;;;;;5029984;28;20461;-36
2022/12/27 12:18:30;;;;;;;6.20;1.27;;;6.70;99.90;;;;;;5025988;28;20037;-36
2022/12/27 12:21:24;;;;;;;6.88;1.70;;;7.00;99.90;;;;;;5028122;28;20091;-36
2022/12/27 12:23:53;;;;;;;10.40;2.40;;;7.00;99.90;;;;;;5023414;28;20038;-36
2022/12/27 12:26:23;;;;;;;8.40;1.95;;;7.00;99.90;;;;;;5029736;28;20049;-37
2022/12/27 12:29:04;;;;;;;6.75;1.63;;;7.00;99.90;;;;;;5025374;28;20048;-36
2022/12/27 12:32:02;;;;;;;8.93;2.30;;;6.90;99.90;;;;;;5024453;28;20038;-36
2022/12/27 12:34:51;;;;;;;7.20;2.05;;;6.90;99.90;;;;;;5007452;28;20064;-37
2022/12/27 12:37:38;;;;;;;7.93;2.97;;;6.80;99.90;;;;;;5031084;28;20033;-36
2022/12/27 12:40:27;;;;;;;7.82;2.67;;;6.70;99.90;;;;;;5022064;28;20041;-37
2022/12/27 12:43:11;;;;;;;6.07;2.28;;;6.60;99.90;;;;;;5026873;28;20060;-39
2022/12/27 12:45:37;;;;;;;8.85;2.53;;;6.70;99.90;;;;;;5027500;28;20046;-36
2022/12/27 12:48:19;;;;;;;7.82;2.83;;;6.70;99.90;;;;;;5022018;28;20092;-37
2022/12/27 12:51:17;;;;;;;8.88;3.00;;;6.80;99.90;;;;;;5031953;28;20057;-37
2022/12/27 12:53:55;;;;;;;7.68;2.88;;;7.00;99.90;;;;;;5030451;28;20041;-36
2022/12/27 12:56:46;;;;;;;7.57;3.05;;;7.10;99.90;;;;;;5026649;28;20593;-36
2022/12/27 12:59:30;;;;;;;8.82;2.78;;;7.40;99.90;;;;;;5026357;28;20482;-36
2022/12/27 13:02:14;;;;;;;11.55;2.70;;;7.70;99.90;;;;;;5022578;28;20045;-36
2022/12/27 13:04:57;;;;;;;9.60;4.82;;;8.00;99.90;;;;;;5026662;28;20117;-37
2022/12/27 13:07:30;;;;;;;8.73;2.95;;;8.30;99.90;;;;;;5028849;28;20433;-36
2022/12/27 13:10:13;;;;;;;;;;;8.80;99.90;;;;;;5020241;28;20067;-37
2022/12/27 13:12:53;;;;;;;12.32;3.83;;;8.80;99.90;;;;;;5016969;28;20363;-40
2022/12/27 13:15:39;;;;;;;7.15;3.10;;;8.50;99.90;;;;;;5038677;28;20514;-38
2022/12/27 13:18:24;;;;;;;8.20;3.00;;;8.30;99.90;;;;;;5028233;28;20041;-36
2022/12/27 13:21:16;;;;;;;7.22;3.08;;;8.10;99.90;;;;;;5022387;28;20049;-36
2022/12/27 13:24:10;;;;;;;11.50;4.05;;;7.90;99.90;;;;;;5030491;28;20049;-36
2022/12/27 13:27:19;;;;;;;8.27;3.25;;;7.60;99.90;;;;;;5015725;28;20045;-37
2022/12/27 13:29:48;;;;;;;7.28;3.78;;;7.40;99.90;;;;;;5022366;28;20046;-39
2022/12/27 13:32:26;;;;;;;8.32;3.50;;;7.30;99.90;;;;;;5021749;28;20041;-35
2022/12/27 13:35:16;;;;;;;8.48;3.40;;;7.40;99.90;;;;;;5018698;28;20339;-35
2022/12/27 13:38:22;;;;;;;14.50;4.63;;;7.50;99.90;;;;;;5021855;28;20606;-36
2022/12/27 13:41:13;;;;;;;8.15;3.40;;;7.50;99.90;;;;;;5024155;28;20058;-38
2022/12/27 13:43:57;;;;;;;8.60;4.05;;;7.50;99.90;;;;;;5012095;28;20056;-37
2022/12/27 13:46:43;;;;;;;10.30;4.03;;;7.60;99.90;;;;;;5015988;28;20123;-36
2022/12/27 13:49:24;;;;;;;6.85;4.03;;;7.60;99.90;;;;;;5013539;28;20119;-39
2022/12/27 13:51:51;;;;;;;10.53;4.60;;;7.60;99.90;;;;;;5016358;28;20059;-34
2022/12/27 13:54:26;;;;;;;9.45;4.28;;;7.60;99.90;;;;;;5016013;28;20038;-34
2022/12/27 13:57:19;;;;;;;7.65;3.97;;;7.50;99.90;;;;;;5024690;28;20521;-37
2022/12/27 13:59:53;;;;;;;8.40;3.40;;;7.40;99.90;;;;;;5028316;28;20064;-38
2022/12/27 14:02:19;;;;;;;11.55;4.53;;;7.30;99.90;;;;;;5028824;28;20124;-38
2022/12/27 14:05:02;;;;;;;10.35;4.00;;;7.30;99.90;;;;;;5026625;28;20459;-38
2022/12/27 14:07:57;;;;;;;7.35;4.40;;;7.20;99.90;;;;;;5029205;28;20099;-36
2022/12/27 14:10:35;;;;;;;14.23;3.80;;;7.10;99.90;;;;;;5028592;28;20056;-37
2022/12/27 14:13:02;;;;;;;9.18;3.78;;;7.00;99.90;;;;;;5027631;28;20525;-35
2022/12/27 14:15:40;;;;;;;13.90;4.82;;;7.00;99.90;;;;;;5029613;28;20258;-35
2022/12/27 14:18:36;;;;;;;8.55;4.40;;;6.90;99.90;;;;;;5023287;28;20219;-36
2022/12/27 14:21:38;;;;;;;14.88;4.63;;;6.90;99.90;;;;;;5027120;28;20111;-36
2022/12/27 14:24:06;;;;;;;12.73;4.97;;;6.90;99.90;;;;;;5022830;28;20064;-37
2022/12/27 14:26:53;;;;;;;12.38;4.75;;;6.80;99.90;;;;;;5027290;28;20040;-36
2022/12/27 14:29:57;;;;;;;8.25;4.57;;;6.80;99.90;;;;;;5029285;28;20041;-35
2022/12/27 14:32:35;;;;;;;8.50;4.55;;;6.80;99.90;;;;;;5026919;28;20069;-36
2022/12/27 14:35:33;;;;;;;9.63;5.05;;;6.70;99.90;;;;;;5026216;28;20045;-37
2022/12/27 14:38:20;;;;;;;7.93;4.05;;;6.70;99.90;;;;;;5025771;28;20037;-37
2022/12/27 14:41:15;;;;;;;9.82;4.25;;;6.60;99.90;;;;;;5024294;28;20499;-35
2022/12/27 14:43:50;;;;;;;12.55;4.45;;;6.50;99.90;;;;;;5025646;28;20045;-36
2022/12/27 14:46:37;;;;;;;9.88;4.47;;;6.50;99.90;;;;;;5019999;28;20096;-36
2022/12/27 14:49:37;;;;;;;12.38;5.07;;;6.50;99.90;;;;;;5016180;28;20049;-36
2022/12/27 14:52:39;;;;;;;10.88;4.88;;;6.50;99.90;;;;;;5013606;28;20124;-37
2022/12/27 14:55:11;;;;;;;13.73;4.30;;;6.50;99.90;;;;;;5015772;28;20047;-37
2022/12/27 14:57:49;;;;;;;7.57;4.38;;;6.40;99.90;;;;;;5027213;28;20126;-36
2022/12/27 15:00:23;;;;;;;8.13;4.50;;;6.40;99.90;;;;;;5012775;28;20184;-36
2022/12/27 15:03:16;;;;;;;8.60;4.47;;;6.30;99.90;;;;;;5011198;28;20081;-36
2022/12/27 15:06:12;;;;;;;11.05;4.43;;;6.30;99.90;;;;;;5022695;28;20037;-36